Time;durP1;ratioP1;P1;durP2;ratioP2;P2;SDS_P1;SDS_P2;PMS_P1;PMS_P2;Temp;Humidity;BMP_temperature;BMP_pressure;BME280_temperature;BME280_humidity;BME280_pressure;Samples;Min_cycle;Max_cycle;Signal;HPM_P1;HPM_P2
2023/10/29 00:00:48;;;;;;;;;;;;;;;16.72;57.11;100554.41;5082351;28;1972;-64
2023/10/29 00:03:14;;;;;;;;;;;;;;;16.56;56.59;100567.38;5095931;28;1102;-65
2023/10/29 00:05:40;;;;;;;;;;;;;;;16.48;56.31;100567.09;5091562;28;1117;-64
2023/10/29 00:08:08;;;;;;;;;;;;;;;16.33;56.37;100557.78;5096198;28;1082;-64
2023/10/29 00:10:34;;;;;;;;;;;;;;;16.28;56.19;100565.22;5077548;28;1050;-64
2023/10/29 00:13:01;;;;;;;;;;;;;;;16.19;55.84;100571.25;5087658;28;1166;-64
2023/10/29 00:15:27;;;;;;;;;;;;;;;16.13;56.02;100575.09;5086235;28;2445;-64
2023/10/29 00:17:52;;;;;;;;;;;;;;;16.93;56.79;100566.16;5091738;28;898;-64
2023/10/29 00:20:18;;;;;;;;;;;;;;;17.28;56.46;100571.78;5095632;28;1965;-64
2023/10/29 00:22:44;;;;;;;;;;;;;;;16.73;56.91;100578.00;5096012;28;1094;-64
2023/10/29 00:25:10;;;;;;;;;;;;;;;16.52;56.82;100570.91;5091251;28;1101;-65
2023/10/29 00:27:35;;;;;;;;;;;;;;;16.40;56.41;100574.78;5075778;28;1050;-65
2023/10/29 00:30:01;;;;;;;;;;;;;;;16.36;56.28;100567.41;5091947;28;1126;-64
2023/10/29 00:32:26;;;;;;;;;;;;;;;16.23;56.25;100568.78;5081580;28;1282;-64
2023/10/29 00:34:52;;;;;;;;;;;;;;;16.14;56.16;100578.66;5081914;28;1219;-64
2023/10/29 00:37:17;;;;;;;;;;;;;;;16.15;55.75;100583.06;5099921;28;1153;-63
2023/10/29 00:39:43;;;;;;;;;;;;;;;17.22;56.70;100583.88;5068279;28;1976;-64
2023/10/29 00:42:11;;;;;;;;;;;;;;;17.07;56.90;100587.53;5077497;28;1622;-63
2023/10/29 00:44:37;;;;;;;;;;;;;;;16.70;56.96;100583.22;5085667;28;2408;-65
2023/10/29 00:47:03;;;;;;;;;;;;;;;16.51;56.68;100580.25;5087825;28;994;-65
2023/10/29 00:49:28;;;;;;;;;;;;;;;16.38;56.27;100574.25;5092600;28;1067;-65
2023/10/29 00:51:54;;;;;;;;;;;;;;;16.32;56.13;100582.75;5061775;28;1101;-65
2023/10/29 00:54:19;;;;;;;;;;;;;;;16.21;55.85;100573.72;5086139;28;1106;-65
2023/10/29 00:56:45;;;;;;;;;;;;;;;16.15;55.78;100577.56;5087756;28;1072;-64
2023/10/29 00:59:14;;;;;;;;;;;;;;;17.08;56.96;100584.50;5092719;28;1162;-64
2023/10/29 01:01:40;;;;;;;;;;;;;;;17.20;56.53;100584.16;5062056;28;1913;-64
2023/10/29 01:04:05;;;;;;;;;;;;;;;16.71;57.19;100579.38;5079074;28;1051;-63
2023/10/29 01:06:31;;;;;;;;;;;;;;;16.50;56.79;100584.13;5096458;28;904;-64
2023/10/29 01:08:57;;;;;;;;;;;;;;;16.41;56.51;100589.31;5080976;28;1121;-64
2023/10/29 01:11:22;;;;;;;;;;;;;;;16.31;56.21;100587.41;5099233;28;1112;-65
2023/10/29 01:13:48;;;;;;;;;;;;;;;16.24;55.94;100582.22;5093465;28;1054;-64
2023/10/29 01:16:13;;;;;;;;;;;;;;;16.14;56.18;100581.41;5078807;28;937;-63
2023/10/29 01:18:39;;;;;;;;;;;;;;;16.06;55.87;100578.13;5092481;28;1118;-62
2023/10/29 01:21:04;;;;;;;;;;;;;;;17.16;56.76;100583.09;5078710;28;1906;-63
2023/10/29 01:23:30;;;;;;;;;;;;;;;17.19;56.71;100585.25;5077994;28;1125;-63
2023/10/29 01:25:57;;;;;;;;;;;;;;;16.70;57.06;100589.53;5092559;28;875;-63
2023/10/29 01:28:24;;;;;;;;;;;;;;;16.51;56.58;100602.19;5078875;28;1138;-63
2023/10/29 01:30:50;;;;;;;;;;;;;;;16.39;56.63;100605.25;5098143;28;915;-63
2023/10/29 01:33:15;;;;;;;;;;;;;;;16.25;56.16;100594.00;5080428;28;1077;-63
2023/10/29 01:35:41;;;;;;;;;;;;;;;16.17;56.15;100597.31;5090291;28;1157;-63
2023/10/29 01:38:07;;;;;;;;;;;;;;;16.25;56.65;100605.81;5093979;28;1039;-63
2023/10/29 01:40:33;;;;;;;;;;;;;;;17.56;56.36;100613.41;5090223;28;1918;-63
2023/10/29 01:42:58;;;;;;;;;;;;;;;16.93;57.34;100614.78;5091347;28;924;-61
2023/10/29 01:45:24;;;;;;;;;;;;;;;16.62;57.00;100614.84;5072215;28;2706;-62
2023/10/29 01:47:49;;;;;;;;;;;;;;;16.50;56.60;100614.31;5061828;28;1141;-63
2023/10/29 01:50:15;;;;;;;;;;;;;;;16.36;56.53;100617.59;5060784;28;1581;-62
2023/10/29 01:52:40;;;;;;;;;;;;;;;16.28;56.24;100612.66;5082908;28;1070;-62
2023/10/29 01:55:06;;;;;;;;;;;;;;;16.18;56.13;100621.72;5086485;28;859;-63
2023/10/29 01:57:35;;;;;;;;;;;;;;;16.08;55.92;100611.56;5077746;28;1061;-62
2023/10/29 02:00:02;;;;;;;;;;;;;;;16.86;57.14;100622.47;5072783;28;1905;-64
2023/10/29 02:02:37;;;;;;;;;;;;;;;17.13;57.00;100619.38;5098355;28;876;-64
2023/10/29 02:05:05;;;;;;;;;;;;;;;16.71;57.23;100624.13;5078581;28;1182;-63
2023/10/29 02:07:31;;;;;;;;;;;;;;;16.50;56.75;100628.84;5098246;28;1090;-64
2023/10/29 02:09:56;;;;;;;;;;;;;;;16.39;56.51;100619.78;5084020;28;1042;-65
2023/10/29 02:12:22;;;;;;;;;;;;;;;16.29;56.28;100630.78;5085556;28;1143;-64
2023/10/29 02:14:52;;;;;;;;;;;;;;;16.18;56.05;100635.44;5070898;28;1895;-65
2023/10/29 02:17:17;;;;;;;;;;;;;;;16.08;55.97;100624.47;5062459;28;1107;-64
2023/10/29 02:19:43;;;;;;;;;;;;;;;16.04;55.75;100626.94;5097309;28;1909;-64
2023/10/29 02:22:09;;;;;;;;;;;;;;;17.13;56.95;100632.28;5077737;28;984;-64
2023/10/29 02:24:34;;;;;;;;;;;;;;;17.13;56.95;100627.59;5091850;28;1105;-64
2023/10/29 02:27:00;;;;;;;;;;;;;;;16.68;57.21;100638.41;5077576;28;1097;-65
2023/10/29 02:29:25;;;;;;;;;;;;;;;16.46;56.76;100646.16;5081106;28;1054;-64
2023/10/29 02:31:50;;;;;;;;;;;;;;;16.32;56.57;100635.72;5083978;28;1204;-64
2023/10/29 02:34:16;;;;;;;;;;;;;;;16.28;56.39;100642.84;5097768;28;1053;-63
2023/10/29 02:36:41;;;;;;;;;;;;;;;16.16;56.30;100650.53;5083411;28;1293;-65
2023/10/29 02:39:07;;;;;;;;;;;;;;;16.99;57.14;100651.28;5085124;28;1153;-64
2023/10/29 02:41:33;;;;;;;;;;;;;;;17.05;57.00;100655.66;5093062;28;1980;-65
2023/10/29 02:43:58;;;;;;;;;;;;;;;16.65;57.06;100658.19;5090157;28;1883;-64
2023/10/29 02:46:24;;;;;;;;;;;;;;;16.48;56.70;100653.00;5090821;28;1185;-65
2023/10/29 02:48:50;;;;;;;;;;;;;;;16.32;56.52;100660.41;5089954;28;1081;-63
2023/10/29 02:51:15;;;;;;;;;;;;;;;16.28;56.10;100653.81;5065635;28;1023;-64
2023/10/29 02:53:41;;;;;;;;;;;;;;;16.20;56.02;100657.09;5092516;28;1216;-66
2023/10/29 02:56:07;;;;;;;;;;;;;;;16.59;57.16;100659.28;5065304;28;1135;-63
2023/10/29 02:58:32;;;;;;;;;;;;;;;17.44;56.22;100657.69;5084096;28;1033;-64
2023/10/29 03:01:05;;;;;;;;;;;;;;;16.77;57.08;100661.47;5083310;28;1905;-64
2023/10/29 03:03:31;;;;;;;;;;;;;;;16.53;56.91;100672.19;5065248;28;1189;-64
2023/10/29 03:05:57;;;;;;;;;;;;;;;16.41;56.70;100680.72;5078432;28;1138;-63
2023/10/29 03:08:22;;;;;;;;;;;;;;;16.29;56.39;100682.09;5059007;28;1587;-64
2023/10/29 03:10:49;;;;;;;;;;;;;;;16.19;56.31;100682.91;5083686;28;1066;-64
2023/10/29 03:13:15;;;;;;;;;;;;;;;16.13;56.01;100676.59;5096727;28;1007;-61
2023/10/29 03:15:41;;;;;;;;;;;;;;;17.32;56.81;100682.78;5076644;28;2855;-64
2023/10/29 03:18:06;;;;;;;;;;;;;;;16.96;57.28;100674.66;5071550;28;1000;-64
2023/10/29 03:20:32;;;;;;;;;;;;;;;16.65;57.02;100677.41;5078295;28;1901;-64
2023/10/29 03:22:57;;;;;;;;;;;;;;;16.45;56.53;100680.97;5096179;28;1071;-63
2023/10/29 03:25:23;;;;;;;;;;;;;;;16.34;56.43;100685.66;5083487;28;1134;-64
2023/10/29 03:27:48;;;;;;;;;;;;;;;16.26;55.99;100677.97;5096161;28;1054;-63
2023/10/29 03:30:14;;;;;;;;;;;;;;;16.15;56.19;100679.88;5071842;28;1115;-60
2023/10/29 03:32:40;;;;;;;;;;;;;;;16.63;57.30;100687.84;5071617;28;1070;-67
2023/10/29 03:35:06;;;;;;;;;;;;;;;17.50;56.45;100694.22;5076106;28;1050;-63
2023/10/29 03:37:31;;;;;;;;;;;;;;;16.81;57.13;100693.88;5084311;28;1086;-62
2023/10/29 03:39:57;;;;;;;;;;;;;;;16.59;56.94;100703.22;5084978;28;1972;-63
2023/10/29 03:42:23;;;;;;;;;;;;;;;16.38;56.52;100696.91;5075504;28;1117;-63
2023/10/29 03:44:48;;;;;;;;;;;;;;;16.29;56.59;100698.56;5060892;28;1928;-65
2023/10/29 03:47:14;;;;;;;;;;;;;;;16.17;56.12;100698.81;5093743;28;1103;-63
2023/10/29 03:49:41;;;;;;;;;;;;;;;16.39;57.10;100699.38;5096198;28;1014;-64
2023/10/29 03:52:08;;;;;;;;;;;;;;;17.67;56.30;100700.22;5079101;28;1134;-66
2023/10/29 03:54:33;;;;;;;;;;;;;;;17.02;57.08;100709.22;5075841;28;1069;-66
2023/10/29 03:56:59;;;;;;;;;;;;;;;16.64;57.19;100714.19;5093917;28;1066;-63
2023/10/29 03:59:24;;;;;;;;;;;;;;;16.50;56.90;100710.38;5096457;28;1026;-62
2023/10/29 04:01:50;;;;;;;;;;;;;;;16.38;56.27;100708.72;5095917;28;1993;-64
2023/10/29 04:04:16;;;;;;;;;;;;;;;16.38;56.07;100707.88;5084741;28;1150;-64
2023/10/29 04:06:42;;;;;;;;;;;;;;;16.21;56.11;100719.13;5088796;28;1054;-64
2023/10/29 04:09:07;;;;;;;;;;;;;;;16.10;56.18;100720.19;5089311;28;1198;-62
2023/10/29 04:11:33;;;;;;;;;;;;;;;16.81;57.07;100719.41;5076055;28;1030;-62
2023/10/29 04:13:59;;;;;;;;;;;;;;;17.23;56.91;100707.25;5087951;28;2343;-63
2023/10/29 04:16:24;;;;;;;;;;;;;;;16.72;57.30;100724.63;5083649;28;1104;-63
2023/10/29 04:18:50;;;;;;;;;;;;;;;16.49;57.01;100719.69;5088591;28;1078;-50
2023/10/29 04:21:15;;;;;;;;;;;;;;;16.37;56.69;100728.22;5095896;28;1909;-49
2023/10/29 04:23:41;;;;;;;;;;;;;;;16.24;56.37;100738.63;5095339;28;1157;-49
2023/10/29 04:26:06;;;;;;;;;;;;;;;16.16;56.02;100743.78;5082609;28;1050;-49
2023/10/29 04:28:32;;;;;;;;;;;;;;;16.08;55.99;100739.69;5089869;28;1208;-48
2023/10/29 04:30:58;;;;;;;;;;;;;;;16.76;57.16;100747.69;5079377;28;1120;-46
2023/10/29 04:33:23;;;;;;;;;;;;;;;17.33;56.60;100755.84;5075329;28;1035;-48
2023/10/29 04:35:49;;;;;;;;;;;;;;;16.67;57.46;100752.06;5088332;28;1083;-45
2023/10/29 04:38:14;;;;;;;;;;;;;;;16.56;57.00;100764.16;5082074;28;1201;-47
2023/10/29 04:40:40;;;;;;;;;;;;;;;16.40;56.69;100761.41;5095467;28;1901;-49
2023/10/29 04:43:05;;;;;;;;;;;;;;;16.28;56.26;100763.56;5078861;28;1205;-48
2023/10/29 04:45:31;;;;;;;;;;;;;;;16.17;56.28;100756.44;5075319;28;2634;-46
2023/10/29 04:47:57;;;;;;;;;;;;;;;16.45;57.35;100762.50;5086891;28;1042;-46
2023/10/29 04:50:22;;;;;;;;;;;;;;;17.66;56.59;100763.75;5076087;28;1106;-46
2023/10/29 04:52:48;;;;;;;;;;;;;;;16.91;57.48;100777.13;5093032;28;1124;-47
2023/10/29 04:55:14;;;;;;;;;;;;;;;16.57;57.34;100776.78;5088237;28;1183;-45
2023/10/29 04:57:39;;;;;;;;;;;;;;;16.49;56.55;100780.06;5083186;28;1006;-47
2023/10/29 05:00:05;;;;;;;;;;;;;;;16.36;56.54;100792.41;5094116;28;1905;-47
2023/10/29 05:02:31;;;;;;;;;;;;;;;16.26;56.12;100793.22;5075806;28;1118;-49
2023/10/29 05:04:56;;;;;;;;;;;;;;;16.16;56.24;100801.41;5075548;28;1168;-48
2023/10/29 05:07:22;;;;;;;;;;;;;;;17.18;57.06;100802.59;5084211;28;851;-46
2023/10/29 05:09:47;;;;;;;;;;;;;;;17.00;57.35;100802.09;5080540;28;1125;-47
2023/10/29 05:12:13;;;;;;;;;;;;;;;16.64;57.26;100803.97;5075255;28;1019;-49
2023/10/29 05:14:38;;;;;;;;;;;;;;;16.41;57.11;100811.63;5081660;28;2386;-51
2023/10/29 05:17:04;;;;;;;;;;;;;;;16.33;56.75;100815.72;5097733;28;1122;-49
2023/10/29 05:19:29;;;;;;;;;;;;;;;16.25;56.21;100821.75;5092260;28;1011;-51
2023/10/29 05:21:55;;;;;;;;;;;;;;;16.18;56.06;100819.25;5078740;28;1913;-48
2023/10/29 05:24:23;;;;;;;;;;;;;;;16.15;56.65;100829.94;5092865;28;1178;-46
2023/10/29 05:26:48;;;;;;;;;;;;;;;17.46;56.77;100825.94;5098535;28;1121;-49
2023/10/29 05:29:14;;;;;;;;;;;;;;;16.97;57.48;100830.13;5098338;28;1009;-48
2023/10/29 05:31:39;;;;;;;;;;;;;;;16.60;57.35;100842.13;5088614;28;1185;-51
2023/10/29 05:34:05;;;;;;;;;;;;;;;17.28;56.77;100839.16;5090138;28;1011;-46
2023/10/29 05:36:31;;;;;;;;;;;;;;;16.49;56.62;100843.22;5093900;28;1054;-50
2023/10/29 05:38:56;;;;;;;;;;;;;;;16.10;55.18;100847.19;5089736;28;1118;-50
2023/10/29 05:41:22;;;;;;;;;;;;;;;15.92;53.53;100851.22;5093334;28;1982;-44
2023/10/29 05:43:48;;;;;;;;;;;;;;;15.83;52.62;100855.59;5088687;28;1159;-48
2023/10/29 05:46:13;;;;;;;;;;;;;;;15.85;51.50;100865.22;5096348;28;1023;-51
2023/10/29 05:48:39;;;;;;;;;;;;;;;15.59;51.60;100875.16;5098019;28;1043;-50
2023/10/29 05:51:04;;;;;;;;;;;;;;;16.43;53.36;100870.63;5093626;28;1153;-47
2023/10/29 05:53:30;;;;;;;;;;;;;;;15.97;53.01;100878.69;5089029;28;1235;-46
2023/10/29 05:55:56;;;;;;;;;;;;;;;15.80;52.03;100878.88;5090524;28;1165;-46
2023/10/29 05:58:23;;;;;;;;;;;;;;;15.76;51.08;100887.88;5098395;28;1021;-46
2023/10/29 06:00:50;;;;;;;;;;;;;;;15.63;50.53;100889.19;5098445;28;1906;-45
2023/10/29 06:03:15;;;;;;;;;;;;;;;15.58;50.33;100889.94;5097732;28;1026;-48
2023/10/29 06:05:41;;;;;;;;;;;;;;;15.66;49.83;100896.88;5079633;28;1153;-47
2023/10/29 06:08:06;;;;;;;;;;;;;;;15.55;49.58;100888.56;5078283;28;1047;-43
2023/10/29 06:10:32;;;;;;;;;;;;;;;15.45;49.52;100898.66;5096435;28;979;-49
2023/10/29 06:12:59;;;;;;;;;;;;;;;16.24;51.21;100905.16;5097928;28;1077;-50
2023/10/29 06:15:25;;;;;;;;;;;;;;;15.85;51.24;100905.50;5093900;28;2244;-50
2023/10/29 06:17:50;;;;;;;;;;;;;;;15.69;50.41;100901.81;5096922;28;1007;-48
2023/10/29 06:20:20;;;;;;;;;;;;;;;15.59;50.12;100902.56;5097363;28;1984;-53
2023/10/29 06:22:47;;;;;;;;;;;;;;;15.63;49.44;100914.66;5081600;28;1065;-54
2023/10/29 06:25:13;;;;;;;;;;;;;;;15.60;48.99;100923.41;5077803;28;1050;-54
2023/10/29 06:27:39;;;;;;;;;;;;;;;16.36;50.14;100924.97;5092876;28;1031;-55
2023/10/29 06:30:05;;;;;;;;;;;;;;;15.85;50.60;100919.22;5092840;28;1145;-49
2023/10/29 06:32:30;;;;;;;;;;;;;;;15.80;50.26;100927.41;5076695;28;855;-55
2023/10/29 06:34:56;;;;;;;;;;;;;;;15.72;49.53;100923.22;5090923;28;1082;-55
2023/10/29 06:37:21;;;;;;;;;;;;;;;15.53;49.26;100923.66;5089245;28;1026;-56
2023/10/29 06:39:46;;;;;;;;;;;;;;;15.69;48.35;100923.75;5084300;28;1913;-55
2023/10/29 06:42:12;;;;;;;;;;;;;;;15.58;48.57;100917.38;5097444;28;1127;-50
2023/10/29 06:44:37;;;;;;;;;;;;;;;15.49;48.37;100917.03;5083421;28;1821;-52
2023/10/29 06:47:03;;;;;;;;;;;;;;;15.42;48.17;100919.19;5077345;28;1259;-55
2023/10/29 06:49:29;;;;;;;;;;;;;;;15.46;47.78;100927.69;5082265;28;1054;-56
2023/10/29 06:51:55;;;;;;;;;;;;;;;15.45;47.92;100926.06;5086030;28;1134;-49
2023/10/29 06:54:20;;;;;;;;;;;;;;;15.48;47.75;100931.81;5090558;28;1100;-55
2023/10/29 06:56:46;;;;;;;;;;;;;;;15.51;47.59;100925.81;5077049;28;855;-49
2023/10/29 06:59:11;;;;;;;;;;;;;;;15.36;47.77;100937.50;5082440;28;1078;-51
2023/10/29 07:01:37;;;;;;;;;;;;;;;15.41;47.62;100933.97;5084656;28;1901;-56
2023/10/29 07:04:02;;;;;;;;;;;;;;;16.43;48.64;100936.50;5089431;28;1033;-53
2023/10/29 07:06:30;;;;;;;;;;;;;;;15.92;49.55;100930.75;5088332;28;1039;-52
2023/10/29 07:08:55;;;;;;;;;;;;;;;15.64;49.43;100938.25;5091003;28;1236;-51
2023/10/29 07:11:20;;;;;;;;;;;;;;;15.54;48.80;100929.94;5086326;28;1494;-56
2023/10/29 07:13:46;;;;;;;;;;;;;;;15.64;48.30;100931.94;5077761;28;1077;-56
2023/10/29 07:16:16;;;;;;;;;;;;;;;15.48;48.14;100939.22;5088500;28;2184;-56
2023/10/29 07:18:42;;;;;;;;;;;;;;;16.45;48.73;100938.97;5074035;28;1091;-55
2023/10/29 07:21:07;;;;;;;;;;;;;;;15.89;49.29;100931.31;5091697;28;1902;-54
2023/10/29 07:23:32;;;;;;;;;;;;;;;15.77;49.09;100922.41;5096861;28;1146;-59
2023/10/29 07:25:58;;;;;;;;;;;;;;;15.63;48.61;100928.38;5083257;28;1185;-56
2023/10/29 07:28:24;;;;;;;;;;;;;;;15.65;48.30;100942.63;5095703;28;1193;-56
2023/10/29 07:30:49;;;;;;;;;;;;;;;15.66;47.85;100938.00;5096515;28;1094;-55
2023/10/29 07:33:15;;;;;;;;;;;;;;;15.65;47.67;100945.38;5077946;28;1077;-59
2023/10/29 07:35:40;;;;;;;;;;;;;;;15.62;47.55;100948.63;5076492;28;1011;-52
2023/10/29 07:38:07;;;;;;;;;;;;;;;15.76;48.24;100948.19;5094142;28;1523;-57
2023/10/29 07:40:33;;;;;;;;;;;;;;;16.07;49.43;100949.22;5096214;28;1902;-57
2023/10/29 07:42:58;;;;;;;;;;;;;;;15.85;49.03;100949.38;5078275;28;1010;-51
2023/10/29 07:45:24;;;;;;;;;;;;;;;15.81;48.55;100959.22;5086241;28;1888;-56
2023/10/29 07:47:49;;;;;;;;;;;;;;;15.70;48.35;100952.81;5089694;28;1063;-53
2023/10/29 07:50:16;;;;;;;;;;;;;;;15.59;48.34;100951.91;5087216;28;1103;-55
2023/10/29 07:52:41;;;;;;;;;;;;;;;16.89;49.07;100955.06;5082520;28;1126;-55
2023/10/29 07:55:07;;;;;;;;;;;;;;;16.10;50.07;100958.84;5085776;28;1137;-51
2023/10/29 07:57:33;;;;;;;;;;;;;;;15.92;49.58;100958.19;5093140;28;1086;-57
2023/10/29 07:59:59;;;;;;;;;;;;;;;15.72;49.59;100956.97;5085215;28;1901;-57
2023/10/29 08:02:24;;;;;;;;;;;;;;;15.80;48.67;100954.84;5093588;28;1187;-56
2023/10/29 08:04:50;;;;;;;;;;;;;;;15.71;48.44;100960.78;5096296;28;1043;-56
2023/10/29 08:07:15;;;;;;;;;;;;;;;16.46;49.37;100964.53;5091628;28;1077;-56
2023/10/29 08:09:41;;;;;;;;;;;;;;;16.04;49.79;100964.31;5086124;28;1028;-57
2023/10/29 08:12:07;;;;;;;;;;;;;;;15.91;49.14;100964.78;5095473;28;1074;-55
2023/10/29 08:14:32;;;;;;;;;;;;;;;15.88;48.68;100968.06;5089364;28;1998;-55
2023/10/29 08:16:58;;;;;;;;;;;;;;;15.74;48.63;100963.00;5093114;28;1078;-58
2023/10/29 08:19:26;;;;;;;;;;;;;;;15.79;48.30;100959.47;5085929;28;1134;-57
2023/10/29 08:21:51;;;;;;;;;;;;;;;15.72;48.24;100965.19;5092846;28;1917;-57
2023/10/29 08:24:17;;;;;;;;;;;;;;;15.70;47.86;100966.53;5096050;28;1189;-57
2023/10/29 08:26:43;;;;;;;;;;;;;;;15.60;47.97;100972.75;5077846;28;1126;-55
2023/10/29 08:29:09;;;;;;;;;;;;;;;16.48;48.85;100978.78;5086353;28;1417;-58
2023/10/29 08:31:35;;;;;;;;;;;;;;;16.01;49.33;100977.75;5095189;28;1010;-57
2023/10/29 08:34:01;;;;;;;;;;;;;;;15.83;49.23;100974.31;5088245;28;887;-59
2023/10/29 08:36:28;;;;;;;;;;;;;;;15.79;48.63;100973.19;5078719;28;1101;-57
2023/10/29 08:38:53;;;;;;;;;;;;;;;15.76;48.30;100975.63;5076378;28;1087;-59
2023/10/29 08:41:19;;;;;;;;;;;;;;;15.77;48.13;100969.03;5101364;28;1978;-56
2023/10/29 08:43:44;;;;;;;;;;;;;;;15.73;48.01;100975.03;5084972;28;931;-58
2023/10/29 08:46:10;;;;;;;;;;;;;;;15.80;47.41;100977.59;5088791;28;2102;-55
2023/10/29 08:48:36;;;;;;;;;;;;;;;15.69;47.81;100982.13;5086571;28;1070;-56
2023/10/29 08:51:01;;;;;;;;;;;;;;;15.64;47.71;100976.63;5096376;28;1066;-57
2023/10/29 08:53:27;;;;;;;;;;;;;;;15.68;47.35;100972.28;5098837;28;1107;-55
2023/10/29 08:55:52;;;;;;;;;;;;;;;15.60;47.43;100974.66;5085809;28;1033;-58
2023/10/29 08:58:18;;;;;;;;;;;;;;;15.64;47.47;100973.03;5080769;28;821;-50
2023/10/29 09:00:45;;;;;;;;;;;;;;;15.63;47.45;100972.22;5083099;28;1970;-54
2023/10/29 09:03:13;;;;;;;;;;;;;;;15.58;47.34;100969.44;5088991;28;1026;-54
2023/10/29 09:05:38;;;;;;;;;;;;;;;15.62;47.40;100956.06;5079237;28;1019;-53
2023/10/29 09:08:04;;;;;;;;;;;;;;;15.64;47.25;100964.81;5089539;28;1050;-55
2023/10/29 09:10:29;;;;;;;;;;;;;;;15.66;47.00;100960.72;5079444;28;875;-55
2023/10/29 09:12:55;;;;;;;;;;;;;;;15.45;47.52;100953.47;5078889;28;1022;-57
2023/10/29 09:15:20;;;;;;;;;;;;;;;15.49;47.20;100957.31;5086579;28;1867;-56
2023/10/29 09:17:46;;;;;;;;;;;;;;;16.49;48.01;100966.72;5088679;28;1078;-57
2023/10/29 09:20:12;;;;;;;;;;;;;;;15.94;48.76;100956.03;5095510;28;1905;-56
2023/10/29 09:22:38;;;;;;;;;;;;;;;15.94;48.65;100967.00;5089331;28;872;-55
2023/10/29 09:25:04;;;;;;;;;;;;;;;15.86;48.18;100962.00;5096963;28;1054;-55
2023/10/29 09:27:29;;;;;;;;;;;;;;;15.67;48.30;100956.06;5098962;28;1027;-55
2023/10/29 09:29:55;;;;;;;;;;;;;;;15.65;48.12;100942.63;5098906;28;1134;-52
2023/10/29 09:32:23;;;;;;;;;;;;;;;15.75;47.47;100952.84;5088487;28;1110;-57
2023/10/29 09:34:49;;;;;;;;;;;;;;;15.67;47.76;100951.44;5081013;28;1154;-53
2023/10/29 09:37:15;;;;;;;;;;;;;;;15.69;47.53;100951.16;5078630;28;1018;-53
2023/10/29 09:39:40;;;;;;;;;;;;;;;15.68;47.49;100950.34;5078378;28;1024;-48
2023/10/29 09:42:08;;;;;;;;;;;;;;;15.68;47.35;100947.59;5078308;28;1911;-55
2023/10/29 09:44:34;;;;;;;;;;;;;;;15.60;47.52;100944.50;5076284;28;1130;-56
2023/10/29 09:47:00;;;;;;;;;;;;;;;15.63;47.25;100939.34;5086899;28;1189;-57
2023/10/29 09:49:26;;;;;;;;;;;;;;;15.47;47.79;100941.13;5078818;28;1051;-55
2023/10/29 09:51:51;;;;;;;;;;;;;;;15.61;47.20;100941.50;5098999;28;1146;-53
2023/10/29 09:54:17;;;;;;;;;;;;;;;16.50;47.95;100951.91;5093831;28;1209;-58
2023/10/29 09:56:42;;;;;;;;;;;;;;;15.92;48.99;100941.72;5089645;28;1143;-56
2023/10/29 09:59:08;;;;;;;;;;;;;;;15.79;48.68;100953.16;5085094;28;1010;-56
2023/10/29 10:01:33;;;;;;;;;;;;;;;15.80;48.31;100943.88;5098292;28;1988;-56
2023/10/29 10:03:59;;;;;;;;;;;;;;;15.70;48.13;100945.41;5097336;28;1139;-54
2023/10/29 10:06:25;;;;;;;;;;;;;;;15.80;47.71;100939.22;5086875;28;1029;-55
2023/10/29 10:08:59;;;;;;;;;;;;;;;15.70;47.56;100939.13;5081201;28;1018;-58
2023/10/29 10:11:25;;;;;;;;;;;;;;;15.68;47.47;100942.13;5083357;28;1284;-58
2023/10/29 10:13:51;;;;;;;;;;;;;;;16.74;48.20;100949.50;5092884;28;1078;-55
2023/10/29 10:16:16;;;;;;;;;;;;;;;16.10;49.14;100945.13;5086285;28;1284;-54
2023/10/29 10:18:55;;;;;;;;;;;;;;;16.01;48.63;100939.34;5089677;28;1285;-54
2023/10/29 10:21:21;;;;;;;;;;;;;;;15.91;48.33;100942.84;5097402;28;1970;-52
2023/10/29 10:23:47;;;;;;;;;;;;;;;15.80;48.38;100946.63;5079651;28;1097;-53
2023/10/29 10:26:14;;;;;;;;;;;;;;;15.77;48.21;100949.81;5085058;28;1023;-56
2023/10/29 10:28:51;;;;;;;;;;;;;;;15.83;47.83;100951.56;5083780;28;1030;-53
2023/10/29 10:31:16;;;;;;;;;;;;;;;15.82;47.76;100948.00;5090669;28;1111;-56
2023/10/29 10:33:42;;;;;;;;;;;;;;;15.86;47.54;100942.81;5077363;28;1031;-55
2023/10/29 10:36:07;;;;;;;;;;;;;;;15.80;47.58;100952.09;5091819;28;964;-54
2023/10/29 10:38:33;;;;;;;;;;;;;;;15.87;47.21;100930.75;5071547;28;1212;-53
2023/10/29 10:40:59;;;;;;;;;;;;;;;15.66;47.38;100938.81;5078593;28;1930;-58
2023/10/29 10:43:26;;;;;;;;;;;;;;;15.73;47.11;100931.16;5089171;28;1095;-57
2023/10/29 10:45:52;;;;;;;;;;;;;;;15.70;47.18;100931.72;5083973;28;2066;-53
2023/10/29 10:48:17;;;;;;;;;;;;;;;15.68;47.16;100925.69;5068140;28;1017;-53
2023/10/29 10:50:45;;;;;;;;;;;;;;;15.72;47.17;100932.28;5082388;28;1185;-54
2023/10/29 10:53:11;;;;;;;;;;;;;;;15.58;47.30;100928.31;5086329;28;1142;-58
2023/10/29 10:55:37;;;;;;;;;;;;;;;16.62;47.64;100933.28;5063696;28;1004;-54
2023/10/29 10:58:04;;;;;;;;;;;;;;;16.06;48.52;100926.47;5086091;28;872;-52
2023/10/29 11:00:32;;;;;;;;;;;;;;;15.95;48.17;100924.78;5091450;28;1967;-57
2023/10/29 11:02:57;;;;;;;;;;;;;;;15.89;47.97;100929.41;5093066;28;1158;-56
2023/10/29 11:05:29;;;;;;;;;;;;;;;15.76;48.08;100934.50;5059363;28;1020;-58
2023/10/29 11:07:55;;;;;;;;;;;;;;;15.78;47.84;100929.56;5078768;28;1015;-54
2023/10/29 11:10:20;;;;;;;;;;;;;;;15.79;47.48;100931.22;5096413;28;1157;-56
2023/10/29 11:12:46;;;;;;;;;;;;;;;15.78;47.37;100929.56;5090509;28;1075;-54
2023/10/29 11:15:17;;;;;;;;;;;;;;;15.70;47.25;100937.19;5086574;28;1764;-55
2023/10/29 11:17:49;;;;;;;;;;;;;;;15.67;47.37;100931.41;5092705;28;1085;-55
2023/10/29 11:20:33;;;;;;;;;;;;;;;15.67;47.28;100932.25;5078999;28;1954;-55
2023/10/29 11:23:05;;;;;;;;;;;;;;;15.69;46.89;100932.78;5082885;28;1105;-55
2023/10/29 11:25:31;;;;;;;;;;;;;;;15.60;47.02;100926.16;5096145;28;1433;-57
2023/10/29 11:27:56;;;;;;;;;;;;;;;16.44;47.84;100931.84;5096111;28;1119;-55
2023/10/29 11:30:22;;;;;;;;;;;;;;;16.00;48.28;100933.00;5083708;28;1095;-53
2023/10/29 11:33:06;;;;;;;;;;;;;;;15.86;48.36;100926.34;5086955;28;1030;-57
2023/10/29 11:35:34;;;;;;;;;;;;;;;15.83;47.66;100921.41;5089508;28;971;-56
2023/10/29 11:38:00;;;;;;;;;;;;;;;15.73;47.89;100914.72;5086260;28;1019;-55
2023/10/29 11:40:26;;;;;;;;;;;;;;;15.80;47.51;100921.94;5093617;28;1974;-56
2023/10/29 11:42:54;;;;;;;;;;;;;;;15.71;47.37;100921.56;5085418;28;1011;-52
2023/10/29 11:45:38;;;;;;;;;;;;;;;15.70;47.41;100918.00;5082413;28;1979;-55
2023/10/29 11:48:07;;;;;;;;;;;;;;;15.72;46.96;100921.31;5096411;28;1106;-53
2023/10/29 11:50:32;;;;;;;;;;;;;;;15.77;47.10;100922.41;5082756;28;1053;-54
2023/10/29 11:52:58;;;;;;;;;;;;;;;15.75;46.82;100925.41;5095902;28;1483;-57
2023/10/29 11:55:27;;;;;;;;;;;;;;;15.71;46.87;100919.66;5089774;28;1096;-53
2023/10/29 11:57:52;;;;;;;;;;;;;;;15.70;46.86;100922.66;5088100;28;1043;-51
2023/10/29 12:00:18;;;;;;;;;;;;;;;15.70;46.89;100918.00;5071904;28;1905;-54
2023/10/29 12:02:44;;;;;;;;;;;;;;;15.61;47.24;100918.75;5095936;28;1082;-56
2023/10/29 12:05:10;;;;;;;;;;;;;;;15.51;47.32;100919.50;5095519;28;1153;-55
2023/10/29 12:07:35;;;;;;;;;;;;;;;15.75;46.81;100917.19;5090032;28;1039;-54
2023/10/29 12:10:02;;;;;;;;;;;;;;;15.62;46.91;100914.94;5087715;28;1035;-57
2023/10/29 12:12:27;;;;;;;;;;;;;;;15.56;47.16;100922.28;5076564;28;1030;-57
2023/10/29 12:14:53;;;;;;;;;;;;;;;16.41;47.87;100926.88;5064771;28;1844;-57
2023/10/29 12:17:18;;;;;;;;;;;;;;;15.87;48.70;100917.84;5095421;28;1125;-58
2023/10/29 12:19:44;;;;;;;;;;;;;;;15.72;48.37;100918.56;5091998;28;1026;-57
2023/10/29 12:22:17;;;;;;;;;;;;;;;15.66;48.08;100927.03;5086107;28;1923;-54
2023/10/29 12:24:43;;;;;;;;;;;;;;;15.70;47.92;100922.66;5090483;28;1022;-55
2023/10/29 12:27:09;;;;;;;;;;;;;;;15.72;47.52;100931.44;5069236;28;993;-56
2023/10/29 12:29:34;;;;;;;;;;;;;;;15.69;47.28;100932.78;5060278;28;1071;-53
2023/10/29 12:32:00;;;;;;;;;;;;;;;15.77;47.29;100933.38;5095426;28;1053;-54
2023/10/29 12:34:27;;;;;;;;;;;;;;;16.64;47.77;100931.09;5095798;28;1063;-56
2023/10/29 12:36:54;;;;;;;;;;;;;;;16.02;48.92;100936.31;5064897;28;1130;-52
2023/10/29 12:39:19;;;;;;;;;;;;;;;15.87;48.56;100933.50;5085517;28;1027;-57
2023/10/29 12:41:54;;;;;;;;;;;;;;;15.83;48.01;100935.94;5075286;28;1967;-51